sim
Sign-in with your pilot id or email,
or register
Callsign
Passwort

Schedule Details

Flight Number: OEO2069
Departure: Brussels Airport (EBBR) at 15:25
Arrival: Munich Airport (EDDM) at 16:50

Weather Information
Getting current METAR information for EBBR 250220Z 22009KT 9999 FEW020 09/07 Q0996 NOSIG
Getting current METAR information for EDDM 250220Z 23004KT 190V260 9999 -RA FEW008 SCT040 12/12 Q1002 TEMPO RA BKN008

Schedule Frequency

Route Map